Chicago, IL (60678)

7:25 AM CDT on September 22, 2014 (GMT -0500)
West Loop - Old St. Pats | Change Station
CLOSE
Current Station
Personal Weather Station
Location: Chicago, IL
Elevation: 548 ft
Nearby Weather Stations

Elev 548 ft 41.88 °N, 87.64 °W | Updated 56 seconds ago

Partly Cloudy
Partly Cloudy
50.6 °F
Feels Like 50.6 °F
N
1.0
Wind Variable Wind from ESE
Gusts 3.0 mph

Today
High -- | Low -- °F
--% Chance of Precip.
Yesterday
High -- | Low -- °F
Precip. -- in
6:37 AM 6:47 PM
Waning Crescent, 3% visible
Pressure 30.25 in
Visibility 10.0 miles
Clouds Few 2600 ft
Dew Point 45 °F
Humidity 81%
Rainfall 0.00 in
Snow Depth Not available.
UV 0 out of 12
Pollen 4.40 out of 12
Ozone Good
PM2.5 Good
Flu Activity Not available.
METAR KMDW 221151Z 33008KT 10SM FEW026 09/06 A3024 RMK AO2 SLP241 7//// T00890061 10122 20089 53022

More Conditions Fewer Conditions

Pressure 30.25 in
Visibility 10.0 miles
Clouds Few 2600 ft
Dew Point 45 °F
Humidity 81%
Rainfall 0.00 in
Snow Depth Not available.
UV 0 out of 12
Pollen 4.40 out of 12
Ozone Good
PM2.5 Good
Flu Activity Not available.
METAR KMDW 221151Z 33008KT 10SM FEW026 09/06 A3024 RMK AO2 SLP241 7//// T00890061 10122 20089 53022

More Conditions Fewer Conditions

10-Day Weather Forecast

Almanac

Astronomy

Sep. 22, 2014 Rise Set
Actual Time 6:37 AM CDT 6:47 PM CDT
Civil Twilight 6:10 AM CDT 7:15 PM CDT
Nautical Twilight 5:37 AM CDT 7:48 PM CDT
Astronomical Twilight 5:04 AM CDT 8:21 PM CDT
Moon 5:05 AM CDT 5:55 PM CDT
Length of Visible Light 13h 05m
Length of Day
12h 09m
Tomorrow will be 2m 48s shorter.
Waning Crescent, 3% of the Moon is Illuminated
Today
Waning Crescent
Sep 24
New
Oct 1
First Quarter
Oct 8
Full
Oct 15
Last Quarter

Today's Extremes

State Highs State Lows

Community

WunderPhotos

Upload Photos

1,755,419 photos uploaded!

WunderBlogs® & News

Nearby

Air Quality

  Air Quality AQ Index Pollutant
Yesterday Good
PM2.5
Yesterday Good
OZONE
Current Good
PM2.5
Current Good
OZONE
Monday Good
PM2.5
Tuesday Moderate
PM2.5

Snow Depth

Station Depth Elevation
No new snow has been reported.

Earthquake Activity

City Distance Mag. Time & Date
No recent earthquake activity has been reported nearby.
Minimum magnitude displayed is 2.5.

Coastal Water Temperatures

Place Temperature
No Stations Reporting

Nearby Weather Stations